sensor_id;sensor_type;location;lat;lon;timestamp;P1;durP1;ratioP1;P2;durP2;ratioP2
52102;SDS011;38101;53.126;6.878;2023-11-21T00:00:12;15.05;;;5.78;;
52102;SDS011;38101;53.126;6.878;2023-11-21T00:02:40;14.38;;;5.35;;
52102;SDS011;38101;53.126;6.878;2023-11-21T00:05:07;13.00;;;5.50;;
52102;SDS011;38101;53.126;6.878;2023-11-21T00:07:37;11.90;;;5.25;;
52102;SDS011;38101;53.126;6.878;2023-11-21T00:10:04;20.00;;;5.78;;
52102;SDS011;38101;53.126;6.878;2023-11-21T00:12:33;12.70;;;5.78;;
52102;SDS011;38101;53.126;6.878;2023-11-21T00:14:59;10.60;;;5.40;;
52102;SDS011;38101;53.126;6.878;2023-11-21T00:17:25;12.00;;;5.43;;
52102;SDS011;38101;53.126;6.878;2023-11-21T00:19:51;14.50;;;5.72;;
52102;SDS011;38101;53.126;6.878;2023-11-21T00:22:17;14.05;;;5.88;;
52102;SDS011;38101;53.126;6.878;2023-11-21T00:24:43;15.90;;;6.20;;
52102;SDS011;38101;53.126;6.878;2023-11-21T00:27:09;12.75;;;5.90;;
52102;SDS011;38101;53.126;6.878;2023-11-21T00:29:35;16.30;;;6.65;;
52102;SDS011;38101;53.126;6.878;2023-11-21T00:32:01;14.07;;;6.40;;
52102;SDS011;38101;53.126;6.878;2023-11-21T00:34:27;13.25;;;6.15;;
52102;SDS011;38101;53.126;6.878;2023-11-21T00:36:52;13.10;;;5.85;;
52102;SDS011;38101;53.126;6.878;2023-11-21T00:39:18;14.20;;;6.05;;
52102;SDS011;38101;53.126;6.878;2023-11-21T00:41:44;13.25;;;6.18;;
52102;SDS011;38101;53.126;6.878;2023-11-21T00:44:10;14.43;;;5.97;;
52102;SDS011;38101;53.126;6.878;2023-11-21T00:46:36;14.02;;;6.90;;
52102;SDS011;38101;53.126;6.878;2023-11-21T00:49:02;12.13;;;6.18;;
52102;SDS011;38101;53.126;6.878;2023-11-21T00:51:29;15.73;;;6.50;;
52102;SDS011;38101;53.126;6.878;2023-11-21T00:53:55;14.80;;;6.70;;
52102;SDS011;38101;53.126;6.878;2023-11-21T00:56:21;14.15;;;6.90;;
52102;SDS011;38101;53.126;6.878;2023-11-21T00:58:47;13.90;;;6.65;;
52102;SDS011;38101;53.126;6.878;2023-11-21T01:01:15;11.90;;;6.43;;
52102;SDS011;38101;53.126;6.878;2023-11-21T01:03:41;16.33;;;6.32;;
52102;SDS011;38101;53.126;6.878;2023-11-21T01:06:07;16.70;;;6.93;;
52102;SDS011;38101;53.126;6.878;2023-11-21T01:08:34;18.67;;;7.32;;
52102;SDS011;38101;53.126;6.878;2023-11-21T01:11:01;17.17;;;6.90;;
52102;SDS011;38101;53.126;6.878;2023-11-21T01:13:27;17.45;;;7.13;;
52102;SDS011;38101;53.126;6.878;2023-11-21T01:15:53;14.25;;;6.78;;
52102;SDS011;38101;53.126;6.878;2023-11-21T01:18:19;16.30;;;7.35;;
52102;SDS011;38101;53.126;6.878;2023-11-21T01:20:45;16.45;;;7.03;;
52102;SDS011;38101;53.126;6.878;2023-11-21T01:23:12;12.90;;;6.80;;
52102;SDS011;38101;53.126;6.878;2023-11-21T01:25:40;16.85;;;7.70;;
52102;SDS011;38101;53.126;6.878;2023-11-21T01:28:06;20.98;;;7.88;;
52102;SDS011;38101;53.126;6.878;2023-11-21T01:30:32;16.83;;;7.50;;
52102;SDS011;38101;53.126;6.878;2023-11-21T01:32:58;15.05;;;7.15;;
52102;SDS011;38101;53.126;6.878;2023-11-21T01:35:24;17.27;;;7.57;;
52102;SDS011;38101;53.126;6.878;2023-11-21T01:37:49;18.17;;;7.57;;
52102;SDS011;38101;53.126;6.878;2023-11-21T01:40:15;17.25;;;7.35;;
52102;SDS011;38101;53.126;6.878;2023-11-21T01:42:41;18.25;;;7.53;;
52102;SDS011;38101;53.126;6.878;2023-11-21T01:45:09;17.27;;;7.28;;
52102;SDS011;38101;53.126;6.878;2023-11-21T01:47:35;18.05;;;7.05;;
52102;SDS011;38101;53.126;6.878;2023-11-21T01:50:02;13.25;;;7.40;;
52102;SDS011;38101;53.126;6.878;2023-11-21T01:52:31;16.30;;;7.80;;
52102;SDS011;38101;53.126;6.878;2023-11-21T01:54:58;20.00;;;7.95;;
52102;SDS011;38101;53.126;6.878;2023-11-21T01:57:25;21.42;;;9.18;;
52102;SDS011;38101;53.126;6.878;2023-11-21T01:59:51;17.48;;;7.57;;
52102;SDS011;38101;53.126;6.878;2023-11-21T02:02:19;19.58;;;7.70;;
52102;SDS011;38101;53.126;6.878;2023-11-21T02:04:45;17.60;;;8.18;;
52102;SDS011;38101;53.126;6.878;2023-11-21T02:07:11;20.23;;;8.88;;
52102;SDS011;38101;53.126;6.878;2023-11-21T02:09:36;15.18;;;7.68;;
52102;SDS011;38101;53.126;6.878;2023-11-21T02:12:07;19.80;;;8.20;;
52102;SDS011;38101;53.126;6.878;2023-11-21T02:14:35;14.93;;;8.05;;
52102;SDS011;38101;53.126;6.878;2023-11-21T02:17:01;20.63;;;8.55;;
52102;SDS011;38101;53.126;6.878;2023-11-21T02:19:28;19.83;;;8.35;;
52102;SDS011;38101;53.126;6.878;2023-11-21T02:21:56;22.45;;;9.13;;
52102;SDS011;38101;53.126;6.878;2023-11-21T02:24:28;27.15;;;8.93;;
52102;SDS011;38101;53.126;6.878;2023-11-21T02:26:54;15.23;;;7.95;;
52102;SDS011;38101;53.126;6.878;2023-11-21T02:29:20;26.33;;;9.35;;
52102;SDS011;38101;53.126;6.878;2023-11-21T02:31:53;16.75;;;9.25;;
52102;SDS011;38101;53.126;6.878;2023-11-21T02:34:20;27.55;;;9.52;;
52102;SDS011;38101;53.126;6.878;2023-11-21T02:36:47;24.50;;;9.85;;
52102;SDS011;38101;53.126;6.878;2023-11-21T02:39:16;17.17;;;8.95;;
52102;SDS011;38101;53.126;6.878;2023-11-21T02:41:43;22.92;;;9.38;;
52102;SDS011;38101;53.126;6.878;2023-11-21T02:44:09;17.50;;;8.52;;
52102;SDS011;38101;53.126;6.878;2023-11-21T02:46:35;16.50;;;8.93;;
52102;SDS011;38101;53.126;6.878;2023-11-21T02:49:04;18.90;;;8.80;;
52102;SDS011;38101;53.126;6.878;2023-11-21T02:51:35;21.10;;;9.18;;
52102;SDS011;38101;53.126;6.878;2023-11-21T02:54:03;17.25;;;8.52;;
52102;SDS011;38101;53.126;6.878;2023-11-21T02:56:31;20.17;;;9.80;;
52102;SDS011;38101;53.126;6.878;2023-11-21T02:58:59;22.50;;;9.73;;
52102;SDS011;38101;53.126;6.878;2023-11-21T03:01:25;18.25;;;9.48;;
52102;SDS011;38101;53.126;6.878;2023-11-21T03:03:51;23.35;;;10.52;;
52102;SDS011;38101;53.126;6.878;2023-11-21T03:06:17;19.67;;;9.75;;
52102;SDS011;38101;53.126;6.878;2023-11-21T03:08:43;24.48;;;10.90;;
52102;SDS011;38101;53.126;6.878;2023-11-21T03:11:09;19.67;;;9.20;;
52102;SDS011;38101;53.126;6.878;2023-11-21T03:13:35;18.17;;;8.60;;
52102;SDS011;38101;53.126;6.878;2023-11-21T03:16:00;20.90;;;8.60;;
52102;SDS011;38101;53.126;6.878;2023-11-21T03:18:26;21.48;;;9.13;;
52102;SDS011;38101;53.126;6.878;2023-11-21T03:20:54;17.15;;;8.43;;
52102;SDS011;38101;53.126;6.878;2023-11-21T03:23:20;19.35;;;9.85;;
52102;SDS011;38101;53.126;6.878;2023-11-21T03:25:45;23.15;;;9.10;;
52102;SDS011;38101;53.126;6.878;2023-11-21T03:28:11;21.08;;;9.68;;
52102;SDS011;38101;53.126;6.878;2023-11-21T03:30:37;23.00;;;9.90;;
52102;SDS011;38101;53.126;6.878;2023-11-21T03:33:02;24.27;;;10.32;;
52102;SDS011;38101;53.126;6.878;2023-11-21T03:35:28;18.90;;;9.85;;
52102;SDS011;38101;53.126;6.878;2023-11-21T03:37:54;18.52;;;9.60;;
52102;SDS011;38101;53.126;6.878;2023-11-21T03:40:19;25.20;;;11.20;;
52102;SDS011;38101;53.126;6.878;2023-11-21T03:42:48;22.27;;;10.55;;
52102;SDS011;38101;53.126;6.878;2023-11-21T03:45:13;27.65;;;11.82;;
52102;SDS011;38101;53.126;6.878;2023-11-21T03:47:40;28.23;;;11.40;;
52102;SDS011;38101;53.126;6.878;2023-11-21T03:50:07;25.70;;;11.27;;
52102;SDS011;38101;53.126;6.878;2023-11-21T03:52:34;26.88;;;12.10;;
52102;SDS011;38101;53.126;6.878;2023-11-21T03:55:00;26.23;;;11.43;;
52102;SDS011;38101;53.126;6.878;2023-11-21T03:57:26;26.60;;;11.70;;
52102;SDS011;38101;53.126;6.878;2023-11-21T03:59:53;22.90;;;10.55;;
52102;SDS011;38101;53.126;6.878;2023-11-21T04:02:18;30.00;;;12.07;;
52102;SDS011;38101;53.126;6.878;2023-11-21T04:04:45;22.05;;;11.75;;
52102;SDS011;38101;53.126;6.878;2023-11-21T04:07:10;24.48;;;11.68;;
52102;SDS011;38101;53.126;6.878;2023-11-21T04:09:38;26.50;;;11.05;;
52102;SDS011;38101;53.126;6.878;2023-11-21T04:12:04;23.15;;;10.63;;
52102;SDS011;38101;53.126;6.878;2023-11-21T04:14:30;19.95;;;11.07;;
52102;SDS011;38101;53.126;6.878;2023-11-21T04:16:56;23.23;;;10.75;;
52102;SDS011;38101;53.126;6.878;2023-11-21T04:19:22;23.20;;;11.48;;
52102;SDS011;38101;53.126;6.878;2023-11-21T04:21:48;24.35;;;11.23;;
52102;SDS011;38101;53.126;6.878;2023-11-21T04:24:14;19.25;;;10.77;;
52102;SDS011;38101;53.126;6.878;2023-11-21T04:26:40;19.83;;;10.45;;
52102;SDS011;38101;53.126;6.878;2023-11-21T04:29:05;21.10;;;10.52;;
52102;SDS011;38101;53.126;6.878;2023-11-21T04:31:31;20.20;;;10.50;;
52102;SDS011;38101;53.126;6.878;2023-11-21T04:33:57;19.70;;;11.60;;
52102;SDS011;38101;53.126;6.878;2023-11-21T04:36:22;21.60;;;11.75;;
52102;SDS011;38101;53.126;6.878;2023-11-21T04:38:48;20.10;;;11.60;;
52102;SDS011;38101;53.126;6.878;2023-11-21T04:41:14;22.00;;;11.13;;
52102;SDS011;38101;53.126;6.878;2023-11-21T04:43:39;23.50;;;11.77;;
52102;SDS011;38101;53.126;6.878;2023-11-21T04:46:05;21.38;;;10.95;;
52102;SDS011;38101;53.126;6.878;2023-11-21T04:48:32;22.38;;;10.85;;
52102;SDS011;38101;53.126;6.878;2023-11-21T04:50:58;22.52;;;11.23;;
52102;SDS011;38101;53.126;6.878;2023-11-21T04:53:23;22.48;;;11.35;;
52102;SDS011;38101;53.126;6.878;2023-11-21T04:55:49;24.02;;;11.63;;
52102;SDS011;38101;53.126;6.878;2023-11-21T04:58:15;21.15;;;11.63;;
52102;SDS011;38101;53.126;6.878;2023-11-21T05:00:40;23.00;;;12.05;;
52102;SDS011;38101;53.126;6.878;2023-11-21T05:03:06;21.42;;;11.48;;
52102;SDS011;38101;53.126;6.878;2023-11-21T05:05:32;25.80;;;11.55;;
52102;SDS011;38101;53.126;6.878;2023-11-21T05:08:01;22.55;;;12.23;;
52102;SDS011;38101;53.126;6.878;2023-11-21T05:10:27;26.65;;;13.32;;
52102;SDS011;38101;53.126;6.878;2023-11-21T05:12:54;22.08;;;12.27;;
52102;SDS011;38101;53.126;6.878;2023-11-21T05:15:20;23.52;;;12.02;;
52102;SDS011;38101;53.126;6.878;2023-11-21T05:17:46;24.00;;;11.50;;
52102;SDS011;38101;53.126;6.878;2023-11-21T05:20:15;23.65;;;11.23;;
52102;SDS011;38101;53.126;6.878;2023-11-21T05:22:50;21.73;;;10.88;;
52102;SDS011;38101;53.126;6.878;2023-11-21T05:25:16;21.85;;;10.40;;
52102;SDS011;38101;53.126;6.878;2023-11-21T05:27:43;17.70;;;9.32;;
52102;SDS011;38101;53.126;6.878;2023-11-21T05:30:10;18.50;;;8.30;;
52102;SDS011;38101;53.126;6.878;2023-11-21T05:32:37;17.02;;;7.88;;
52102;SDS011;38101;53.126;6.878;2023-11-21T05:35:03;15.68;;;7.38;;
52102;SDS011;38101;53.126;6.878;2023-11-21T05:37:34;15.20;;;7.88;;
52102;SDS011;38101;53.126;6.878;2023-11-21T05:40:01;15.02;;;7.13;;
52102;SDS011;38101;53.126;6.878;2023-11-21T05:42:31;15.40;;;8.20;;
52102;SDS011;38101;53.126;6.878;2023-11-21T05:44:57;15.60;;;7.10;;
52102;SDS011;38101;53.126;6.878;2023-11-21T05:47:44;13.25;;;7.47;;
52102;SDS011;38101;53.126;6.878;2023-11-21T05:50:11;15.05;;;8.10;;
52102;SDS011;38101;53.126;6.878;2023-11-21T05:52:41;15.10;;;7.95;;
52102;SDS011;38101;53.126;6.878;2023-11-21T05:55:08;16.75;;;9.00;;
52102;SDS011;38101;53.126;6.878;2023-11-21T05:57:34;16.50;;;8.77;;
52102;SDS011;38101;53.126;6.878;2023-11-21T06:00:04;15.80;;;9.40;;
52102;SDS011;38101;53.126;6.878;2023-11-21T06:02:43;17.45;;;8.95;;
52102;SDS011;38101;53.126;6.878;2023-11-21T06:05:10;17.90;;;9.30;;
52102;SDS011;38101;53.126;6.878;2023-11-21T06:07:36;16.30;;;9.73;;
52102;SDS011;38101;53.126;6.878;2023-11-21T06:10:04;16.38;;;8.70;;
52102;SDS011;38101;53.126;6.878;2023-11-21T06:12:36;20.10;;;9.10;;
52102;SDS011;38101;53.126;6.878;2023-11-21T06:15:03;19.42;;;9.55;;
52102;SDS011;38101;53.126;6.878;2023-11-21T06:17:33;20.35;;;9.88;;
52102;SDS011;38101;53.126;6.878;2023-11-21T06:20:01;16.63;;;9.45;;
52102;SDS011;38101;53.126;6.878;2023-11-21T06:22:34;19.48;;;10.20;;
52102;SDS011;38101;53.126;6.878;2023-11-21T06:25:03;16.80;;;10.02;;
52102;SDS011;38101;53.126;6.878;2023-11-21T06:27:31;19.70;;;9.23;;
52102;SDS011;38101;53.126;6.878;2023-11-21T06:29:58;18.58;;;9.55;;
52102;SDS011;38101;53.126;6.878;2023-11-21T06:32:23;21.38;;;10.10;;
52102;SDS011;38101;53.126;6.878;2023-11-21T06:34:49;18.00;;;9.35;;
52102;SDS011;38101;53.126;6.878;2023-11-21T06:37:15;17.60;;;9.45;;
52102;SDS011;38101;53.126;6.878;2023-11-21T06:39:42;17.88;;;9.80;;
52102;SDS011;38101;53.126;6.878;2023-11-21T06:42:07;18.00;;;9.43;;
52102;SDS011;38101;53.126;6.878;2023-11-21T06:44:33;18.98;;;8.80;;
52102;SDS011;38101;53.126;6.878;2023-11-21T06:47:00;16.13;;;8.38;;
52102;SDS011;38101;53.126;6.878;2023-11-21T06:49:26;18.48;;;9.20;;
52102;SDS011;38101;53.126;6.878;2023-11-21T06:51:51;16.80;;;8.55;;
52102;SDS011;38101;53.126;6.878;2023-11-21T06:54:18;19.63;;;9.85;;
52102;SDS011;38101;53.126;6.878;2023-11-21T06:56:44;18.77;;;10.35;;
52102;SDS011;38101;53.126;6.878;2023-11-21T06:59:09;19.13;;;10.02;;
52102;SDS011;38101;53.126;6.878;2023-11-21T07:01:36;20.48;;;9.95;;
52102;SDS011;38101;53.126;6.878;2023-11-21T07:04:04;19.98;;;10.20;;
52102;SDS011;38101;53.126;6.878;2023-11-21T07:06:31;16.83;;;8.85;;
52102;SDS011;38101;53.126;6.878;2023-11-21T07:08:57;18.38;;;10.63;;
52102;SDS011;38101;53.126;6.878;2023-11-21T07:11:23;16.80;;;9.77;;
52102;SDS011;38101;53.126;6.878;2023-11-21T07:13:50;18.17;;;9.68;;
52102;SDS011;38101;53.126;6.878;2023-11-21T07:16:16;18.73;;;10.70;;
52102;SDS011;38101;53.126;6.878;2023-11-21T07:18:41;19.80;;;10.43;;
52102;SDS011;38101;53.126;6.878;2023-11-21T07:21:07;17.55;;;10.15;;
52102;SDS011;38101;53.126;6.878;2023-11-21T07:23:33;16.77;;;9.88;;
52102;SDS011;38101;53.126;6.878;2023-11-21T07:25:59;20.50;;;10.75;;
52102;SDS011;38101;53.126;6.878;2023-11-21T07:28:25;22.02;;;11.35;;
52102;SDS011;38101;53.126;6.878;2023-11-21T07:30:51;18.63;;;10.18;;
52102;SDS011;38101;53.126;6.878;2023-11-21T07:33:17;19.27;;;10.52;;
52102;SDS011;38101;53.126;6.878;2023-11-21T07:35:43;19.33;;;11.13;;
52102;SDS011;38101;53.126;6.878;2023-11-21T07:38:09;18.67;;;11.30;;
52102;SDS011;38101;53.126;6.878;2023-11-21T07:40:34;18.83;;;11.68;;
52102;SDS011;38101;53.126;6.878;2023-11-21T07:43:00;21.65;;;12.65;;
52102;SDS011;38101;53.126;6.878;2023-11-21T07:45:26;20.23;;;12.30;;
52102;SDS011;38101;53.126;6.878;2023-11-21T07:47:53;21.85;;;12.93;;
52102;SDS011;38101;53.126;6.878;2023-11-21T07:50:20;20.67;;;12.25;;
52102;SDS011;38101;53.126;6.878;2023-11-21T07:52:48;20.73;;;13.20;;
52102;SDS011;38101;53.126;6.878;2023-11-21T07:55:14;20.83;;;12.75;;
52102;SDS011;38101;53.126;6.878;2023-11-21T07:57:40;21.50;;;12.45;;
52102;SDS011;38101;53.126;6.878;2023-11-21T08:00:06;20.27;;;12.77;;
52102;SDS011;38101;53.126;6.878;2023-11-21T08:02:34;21.92;;;13.77;;
52102;SDS011;38101;53.126;6.878;2023-11-21T08:05:00;23.25;;;13.65;;
52102;SDS011;38101;53.126;6.878;2023-11-21T08:07:26;24.50;;;14.98;;
52102;SDS011;38101;53.126;6.878;2023-11-21T08:09:51;24.60;;;14.65;;
52102;SDS011;38101;53.126;6.878;2023-11-21T08:12:17;23.10;;;14.55;;
52102;SDS011;38101;53.126;6.878;2023-11-21T08:14:45;21.75;;;12.98;;
52102;SDS011;38101;53.126;6.878;2023-11-21T08:17:10;20.55;;;12.75;;
52102;SDS011;38101;53.126;6.878;2023-11-21T08:19:36;21.70;;;13.82;;
52102;SDS011;38101;53.126;6.878;2023-11-21T08:22:03;22.52;;;13.23;;
52102;SDS011;38101;53.126;6.878;2023-11-21T08:24:29;23.20;;;14.10;;
52102;SDS011;38101;53.126;6.878;2023-11-21T08:26:54;21.70;;;14.30;;
52102;SDS011;38101;53.126;6.878;2023-11-21T08:29:20;20.40;;;14.45;;
52102;SDS011;38101;53.126;6.878;2023-11-21T08:31:46;54.45;;;17.25;;
52102;SDS011;38101;53.126;6.878;2023-11-21T08:34:12;23.73;;;14.57;;
52102;SDS011;38101;53.126;6.878;2023-11-21T08:36:42;19.05;;;12.88;;
52102;SDS011;38101;53.126;6.878;2023-11-21T08:39:08;25.02;;;14.05;;
52102;SDS011;38101;53.126;6.878;2023-11-21T08:41:35;19.30;;;12.68;;
52102;SDS011;38101;53.126;6.878;2023-11-21T08:44:02;19.55;;;13.00;;
52102;SDS011;38101;53.126;6.878;2023-11-21T08:46:32;18.10;;;12.70;;
52102;SDS011;38101;53.126;6.878;2023-11-21T08:49:00;17.45;;;12.85;;
52102;SDS011;38101;53.126;6.878;2023-11-21T08:51:26;19.02;;;12.77;;
52102;SDS011;38101;53.126;6.878;2023-11-21T08:53:52;18.27;;;12.70;;
52102;SDS011;38101;53.126;6.878;2023-11-21T08:56:18;16.42;;;11.70;;
52102;SDS011;38101;53.126;6.878;2023-11-21T08:58:45;17.10;;;11.85;;
52102;SDS011;38101;53.126;6.878;2023-11-21T09:01:12;15.60;;;10.75;;
52102;SDS011;38101;53.126;6.878;2023-11-21T09:03:38;17.38;;;11.00;;
52102;SDS011;38101;53.126;6.878;2023-11-21T09:06:04;18.35;;;11.40;;
52102;SDS011;38101;53.126;6.878;2023-11-21T09:08:30;16.02;;;11.25;;
52102;SDS011;38101;53.126;6.878;2023-11-21T09:10:57;17.83;;;11.73;;
52102;SDS011;38101;53.126;6.878;2023-11-21T09:13:22;15.73;;;11.02;;
52102;SDS011;38101;53.126;6.878;2023-11-21T09:15:50;17.48;;;11.00;;
52102;SDS011;38101;53.126;6.878;2023-11-21T09:18:16;16.02;;;10.90;;
52102;SDS011;38101;53.126;6.878;2023-11-21T09:20:42;15.85;;;10.07;;
52102;SDS011;38101;53.126;6.878;2023-11-21T09:23:10;14.82;;;10.48;;
52102;SDS011;38101;53.126;6.878;2023-11-21T09:25:36;16.90;;;10.00;;
52102;SDS011;38101;53.126;6.878;2023-11-21T09:28:06;15.77;;;10.57;;
52102;SDS011;38101;53.126;6.878;2023-11-21T09:30:33;13.60;;;9.32;;
52102;SDS011;38101;53.126;6.878;2023-11-21T09:33:00;13.30;;;9.07;;
52102;SDS011;38101;53.126;6.878;2023-11-21T09:35:26;12.80;;;9.02;;
52102;SDS011;38101;53.126;6.878;2023-11-21T09:37:53;13.90;;;9.07;;
52102;SDS011;38101;53.126;6.878;2023-11-21T09:40:20;12.68;;;8.38;;
52102;SDS011;38101;53.126;6.878;2023-11-21T09:42:56;12.77;;;8.40;;
52102;SDS011;38101;53.126;6.878;2023-11-21T09:47:56;17.35;;;7.20;;
52102;SDS011;38101;53.126;6.878;2023-11-21T09:50:22;12.95;;;8.30;;
52102;SDS011;38101;53.126;6.878;2023-11-21T09:55:20;15.30;;;7.65;;
52102;SDS011;38101;53.126;6.878;2023-11-21T09:57:50;10.43;;;6.80;;
52102;SDS011;38101;53.126;6.878;2023-11-21T10:00:15;9.70;;;6.88;;
52102;SDS011;38101;53.126;6.878;2023-11-21T10:02:43;10.35;;;7.13;;
52102;SDS011;38101;53.126;6.878;2023-11-21T10:05:09;9.88;;;7.10;;
52102;SDS011;38101;53.126;6.878;2023-11-21T10:07:36;11.02;;;6.65;;
52102;SDS011;38101;53.126;6.878;2023-11-21T10:10:04;10.88;;;6.53;;
52102;SDS011;38101;53.126;6.878;2023-11-21T10:12:30;13.27;;;7.50;;
52102;SDS011;38101;53.126;6.878;2023-11-21T10:14:57;11.40;;;7.25;;
52102;SDS011;38101;53.126;6.878;2023-11-21T10:17:25;9.82;;;6.53;;
52102;SDS011;38101;53.126;6.878;2023-11-21T10:20:01;23.27;;;7.25;;
52102;SDS011;38101;53.126;6.878;2023-11-21T10:22:31;90.20;;;15.45;;
52102;SDS011;38101;53.126;6.878;2023-11-21T10:24:57;59.60;;;10.73;;
52102;SDS011;38101;53.126;6.878;2023-11-21T10:27:22;13.75;;;7.05;;
52102;SDS011;38101;53.126;6.878;2023-11-21T10:29:51;11.52;;;6.40;;
52102;SDS011;38101;53.126;6.878;2023-11-21T10:32:17;9.23;;;6.68;;
52102;SDS011;38101;53.126;6.878;2023-11-21T10:34:42;13.52;;;7.45;;
52102;SDS011;38101;53.126;6.878;2023-11-21T10:37:20;11.02;;;7.57;;
52102;SDS011;38101;53.126;6.878;2023-11-21T10:39:45;11.93;;;7.97;;
52102;SDS011;38101;53.126;6.878;2023-11-21T10:42:11;14.07;;;6.95;;
52102;SDS011;38101;53.126;6.878;2023-11-21T10:44:37;10.85;;;6.93;;
52102;SDS011;38101;53.126;6.878;2023-11-21T10:47:02;9.50;;;6.57;;
52102;SDS011;38101;53.126;6.878;2023-11-21T10:49:28;9.50;;;6.90;;
52102;SDS011;38101;53.126;6.878;2023-11-21T10:51:54;10.05;;;6.72;;
52102;SDS011;38101;53.126;6.878;2023-11-21T10:54:21;14.18;;;7.90;;
52102;SDS011;38101;53.126;6.878;2023-11-21T10:56:48;11.98;;;7.07;;
52102;SDS011;38101;53.126;6.878;2023-11-21T10:59:16;27.30;;;7.88;;
52102;SDS011;38101;53.126;6.878;2023-11-21T11:01:44;30.83;;;8.05;;
52102;SDS011;38101;53.126;6.878;2023-11-21T11:04:11;17.40;;;7.68;;
52102;SDS011;38101;53.126;6.878;2023-11-21T11:06:44;22.15;;;7.78;;
52102;SDS011;38101;53.126;6.878;2023-11-21T11:09:15;10.82;;;6.80;;
52102;SDS011;38101;53.126;6.878;2023-11-21T11:11:42;11.15;;;6.38;;
52102;SDS011;38101;53.126;6.878;2023-11-21T11:14:13;11.02;;;6.50;;
52102;SDS011;38101;53.126;6.878;2023-11-21T11:16:42;9.98;;;6.68;;
52102;SDS011;38101;53.126;6.878;2023-11-21T11:19:10;10.35;;;6.47;;
52102;SDS011;38101;53.126;6.878;2023-11-21T11:21:41;16.75;;;6.72;;
52102;SDS011;38101;53.126;6.878;2023-11-21T11:27:19;16.30;;;7.53;;
52102;SDS011;38101;53.126;6.878;2023-11-21T11:32:21;14.57;;;6.40;;
52102;SDS011;38101;53.126;6.878;2023-11-21T11:35:04;14.50;;;7.70;;
52102;SDS011;38101;53.126;6.878;2023-11-21T11:37:35;15.43;;;6.80;;
52102;SDS011;38101;53.126;6.878;2023-11-21T11:40:01;10.27;;;6.30;;
52102;SDS011;38101;53.126;6.878;2023-11-21T11:42:32;10.13;;;6.57;;
52102;SDS011;38101;53.126;6.878;2023-11-21T11:44:57;11.45;;;7.22;;
52102;SDS011;38101;53.126;6.878;2023-11-21T11:47:24;9.70;;;6.75;;
52102;SDS011;38101;53.126;6.878;2023-11-21T11:49:56;8.48;;;6.18;;
52102;SDS011;38101;53.126;6.878;2023-11-21T11:52:32;9.85;;;6.80;;
52102;SDS011;38101;53.126;6.878;2023-11-21T11:55:18;10.30;;;6.78;;
52102;SDS011;38101;53.126;6.878;2023-11-21T11:57:46;9.63;;;6.35;;
52102;SDS011;38101;53.126;6.878;2023-11-21T12:00:22;9.38;;;6.53;;
52102;SDS011;38101;53.126;6.878;2023-11-21T12:03:00;11.70;;;6.13;;
52102;SDS011;38101;53.126;6.878;2023-11-21T12:05:28;10.98;;;6.75;;
52102;SDS011;38101;53.126;6.878;2023-11-21T12:08:04;12.15;;;6.97;;
52102;SDS011;38101;53.126;6.878;2023-11-21T12:10:32;10.57;;;6.47;;
52102;SDS011;38101;53.126;6.878;2023-11-21T12:13:00;9.18;;;6.78;;
52102;SDS011;38101;53.126;6.878;2023-11-21T12:15:27;10.18;;;6.43;;
52102;SDS011;38101;53.126;6.878;2023-11-21T12:17:56;10.10;;;6.63;;
52102;SDS011;38101;53.126;6.878;2023-11-21T12:20:24;11.45;;;6.63;;
52102;SDS011;38101;53.126;6.878;2023-11-21T12:22:51;10.43;;;6.55;;
52102;SDS011;38101;53.126;6.878;2023-11-21T12:25:18;9.57;;;6.05;;
52102;SDS011;38101;53.126;6.878;2023-11-21T12:27:49;9.10;;;5.35;;
52102;SDS011;38101;53.126;6.878;2023-11-21T12:30:18;8.57;;;5.47;;
52102;SDS011;38101;53.126;6.878;2023-11-21T12:32:51;8.18;;;5.78;;
52102;SDS011;38101;53.126;6.878;2023-11-21T12:35:22;10.68;;;6.78;;
52102;SDS011;38101;53.126;6.878;2023-11-21T12:37:52;10.37;;;6.00;;
52102;SDS011;38101;53.126;6.878;2023-11-21T12:40:19;13.43;;;6.63;;
52102;SDS011;38101;53.126;6.878;2023-11-21T12:42:48;22.08;;;8.15;;
52102;SDS011;38101;53.126;6.878;2023-11-21T12:47:46;32.72;;;8.90;;
52102;SDS011;38101;53.126;6.878;2023-11-21T12:50:22;29.38;;;7.75;;
52102;SDS011;38101;53.126;6.878;2023-11-21T12:52:51;51.88;;;12.35;;
52102;SDS011;38101;53.126;6.878;2023-11-21T12:55:21;30.15;;;9.23;;
52102;SDS011;38101;53.126;6.878;2023-11-21T12:57:48;12.00;;;6.78;;
52102;SDS011;38101;53.126;6.878;2023-11-21T13:00:17;16.67;;;6.68;;
52102;SDS011;38101;53.126;6.878;2023-11-21T13:02:54;8.43;;;5.60;;
52102;SDS011;38101;53.126;6.878;2023-11-21T13:05:35;8.50;;;6.03;;
52102;SDS011;38101;53.126;6.878;2023-11-21T13:08:05;7.72;;;5.65;;
52102;SDS011;38101;53.126;6.878;2023-11-21T13:10:33;8.55;;;6.25;;
52102;SDS011;38101;53.126;6.878;2023-11-21T13:13:05;10.23;;;6.25;;
52102;SDS011;38101;53.126;6.878;2023-11-21T13:15:34;9.35;;;5.88;;
52102;SDS011;38101;53.126;6.878;2023-11-21T13:18:01;8.23;;;5.60;;
52102;SDS011;38101;53.126;6.878;2023-11-21T13:20:28;10.02;;;5.63;;
52102;SDS011;38101;53.126;6.878;2023-11-21T13:22:55;8.38;;;5.32;;
52102;SDS011;38101;53.126;6.878;2023-11-21T13:25:26;8.55;;;5.75;;
52102;SDS011;38101;53.126;6.878;2023-11-21T13:27:55;8.70;;;5.63;;
52102;SDS011;38101;53.126;6.878;2023-11-21T13:30:25;10.32;;;5.72;;
52102;SDS011;38101;53.126;6.878;2023-11-21T13:32:56;10.95;;;6.32;;
52102;SDS011;38101;53.126;6.878;2023-11-21T13:35:25;8.18;;;5.63;;
52102;SDS011;38101;53.126;6.878;2023-11-21T13:40:34;8.52;;;5.93;;
52102;SDS011;38101;53.126;6.878;2023-11-21T13:43:08;7.90;;;5.70;;
52102;SDS011;38101;53.126;6.878;2023-11-21T13:45:35;8.73;;;5.70;;
52102;SDS011;38101;53.126;6.878;2023-11-21T13:48:11;6.72;;;5.28;;
52102;SDS011;38101;53.126;6.878;2023-11-21T13:50:53;9.55;;;5.93;;
52102;SDS011;38101;53.126;6.878;2023-11-21T13:53:26;9.77;;;5.68;;
52102;SDS011;38101;53.126;6.878;2023-11-21T13:55:52;16.48;;;7.30;;
52102;SDS011;38101;53.126;6.878;2023-11-21T13:58:25;47.42;;;9.35;;
52102;SDS011;38101;53.126;6.878;2023-11-21T14:01:06;9.77;;;5.95;;
52102;SDS011;38101;53.126;6.878;2023-11-21T14:03:42;10.60;;;6.32;;
52102;SDS011;38101;53.126;6.878;2023-11-21T14:06:17;35.22;;;9.02;;
52102;SDS011;38101;53.126;6.878;2023-11-21T14:08:49;9.48;;;6.18;;
52102;SDS011;38101;53.126;6.878;2023-11-21T14:11:15;9.13;;;6.00;;
52102;SDS011;38101;53.126;6.878;2023-11-21T14:13:43;7.97;;;5.78;;
52102;SDS011;38101;53.126;6.878;2023-11-21T14:16:12;7.40;;;5.43;;
52102;SDS011;38101;53.126;6.878;2023-11-21T14:18:39;8.15;;;5.70;;
52102;SDS011;38101;53.126;6.878;2023-11-21T14:21:17;9.80;;;5.43;;
52102;SDS011;38101;53.126;6.878;2023-11-21T14:23:46;18.13;;;6.13;;
52102;SDS011;38101;53.126;6.878;2023-11-21T14:26:13;12.73;;;5.30;;
52102;SDS011;38101;53.126;6.878;2023-11-21T14:28:40;13.13;;;5.78;;
52102;SDS011;38101;53.126;6.878;2023-11-21T14:31:06;10.35;;;4.97;;
52102;SDS011;38101;53.126;6.878;2023-11-21T14:33:38;10.13;;;4.70;;
52102;SDS011;38101;53.126;6.878;2023-11-21T14:36:04;6.40;;;4.40;;
52102;SDS011;38101;53.126;6.878;2023-11-21T14:38:33;10.65;;;5.05;;
52102;SDS011;38101;53.126;6.878;2023-11-21T14:40:58;10.30;;;4.63;;
52102;SDS011;38101;53.126;6.878;2023-11-21T14:43:24;6.97;;;4.50;;
52102;SDS011;38101;53.126;6.878;2023-11-21T14:45:52;7.20;;;4.35;;
52102;SDS011;38101;53.126;6.878;2023-11-21T14:48:21;7.15;;;4.40;;